Etusivu
METAR-TAF:

METAR-TAF

Lentoasemat :

Bodø, Norja

Bodøn lentoasema

Leveyspiiri: 67-16N, Pituuspiiri: 014-22E, korkeus merenpinnasta: 1 m

Tämänhetkinen sää

Tämä raportti tehtiin 16 minuuttia sitten, kello 09.50 UTC
Tuuli 12 kn idästä
Lämpötila 10°C
Kosteus 43%
Ilmanpaine 1016 hPa
Näkyvyys 10 km tai enemmän
ei pilviä alle 1500 m:ssä eikä cumulonimbus-pilviä

METAR: ENBO 270950Z 09012KT CAVOK 10/M02 Q1016 NOSIG

Aika: 12:06 (10:06 UTC)

Sääennuste

Ennuste voimassa 27. päivästä klo 06 UTC - 28. päivään klo 06 UTC
Tuuli 8 kn idästä
Näkyvyys 10 km tai enemmän
Muutamia pilviä 3000 ft:n korkeudessa
Hajanaisia pilviä 8000 ft:n korkeudessa
Ajoittain
27. päivästä klo 09 UTC - 27. päivään klo 15 UTC
Tuuli 10 kn pohjoisesta/koillisesta

TAF: ENBO 2706/2806 09008KT 9999 FEW030 SCT080 TEMPO 2709/2715 02010KT

Säähavainnot ja -ennusteet yli 4000 lentoasemalta (METAR- ja TAF-raportit).

Käytössä olevat sääasemat on merkitty karttaan keltaisilla ja punaisilla pisteillä.

Aseta hiiri pisteen päälle nähdäksesi sääaseman nimen.

Klikkaa sitten nähdäksesi säähavainnot ja -ennusteet.

Kartan vaihtaminen: klikkaa mustalla rastilla varustettuja vihreitä pisteitä, niin voit zoomata sisään; viivalla varustettua vihreää pistettä, niin voit zoomata ulos tai vihreitä nuolia, niin pääset viereisille kartoille.


METAR-TAF: